WetterOnline ( https://www.wetteronline.de )

Wetter aktuell Helgoland

Aktuelles Wetter: Helgoland/Düne (8m)

6-stündlich | Neueste Meldungen
Ortszeit Temperatur Wetter
Do, 22.04. 20:00 7.0° C fast wolkenlos
Do, 22.04. 14:00 8.5° C wolkenlos
Do, 22.04. 8:00 6.6° C wolkig
Do, 22.04. 2:00 6.1° C bewölkt
Mi, 21.04. 20:00 6.9° C wolkig
Mi, 21.04. 14:00 9.2° C leicht bewölkt
Mi, 21.04. 8:00 7.7° C bedeckt
Mi, 21.04. 2:00 8.3° C wolkenlos
Ortszeit Temperatur Wetter
Fr, 23.04. 1:40 6.4° C fast wolkenlos
Fr, 23.04. 1:30 6.3° C wolkenlos
Fr, 23.04. 1:20 6.3° C wolkenlos
Fr, 23.04. 1:10 6.3° C wolkenlos
Fr, 23.04. 1:00 6.4° C leicht bewölkt
Fr, 23.04. 0:50 6.4° C leicht bewölkt
Fr, 23.04. 0:30 6.3° C leicht bewölkt
Fr, 23.04. 0:00 6.4° C bewölkt
Do, 22.04. 23:30 6.4° C wolkig
Do, 22.04. 23:00 6.4° C wolkig
Do, 22.04. 22:30 6.4° C wolkig
Ortszeit Relative Feuchte Sichtweite
Do, 22.04. 20:00 76% 23 km
Do, 22.04. 14:00 67% 24 km
Do, 22.04. 8:00 67% 21 km
Do, 22.04. 2:00 65% 22 km
Mi, 21.04. 20:00 59% 24 km
Mi, 21.04. 14:00 61% 30 km
Mi, 21.04. 8:00 88% 8 km
Mi, 21.04. 2:00 76% 45 km
Ortszeit Relative Feuchte Sichtweite
Fr, 23.04. 1:40 81% -
Fr, 23.04. 1:30 80% 28 km
Fr, 23.04. 1:20 80% -
Fr, 23.04. 1:10 82% -
Fr, 23.04. 1:00 81% 25 km
Fr, 23.04. 0:50 81% -
Fr, 23.04. 0:30 81% 25 km
Fr, 23.04. 0:00 82% 22 km
Do, 22.04. 23:30 83% 21 km
Do, 22.04. 23:00 82% 22 km
Do, 22.04. 22:30 81% 21 km
Ortszeit Niederschlagsmenge Niederschlagsart
Do, 22.04. 20:00 0.0 l/m2 in 12 Std. -
Do, 22.04. 14:00 0.0 l/m2 in 6 Std. -
Do, 22.04. 8:00 0.0 l/m2 in 12 Std. -
Do, 22.04. 2:00 0.0 l/m2 in 6 Std. -
Mi, 21.04. 20:00 0.1 l/m2 in 12 Std. -
Mi, 21.04. 14:00 0.1 l/m2 in 6 Std. Regen
Mi, 21.04. 8:00 0.0 l/m2 in 12 Std. -
Mi, 21.04. 2:00 0.0 l/m2 in 6 Std. -
Ortszeit Niederschlagsmenge Niederschlagsart
Fr, 23.04. 1:40 keine Meldung -
Fr, 23.04. 1:30 0.0 l/m2 in 1 Std. -
Fr, 23.04. 1:20 keine Meldung -
Fr, 23.04. 1:10 keine Meldung -
Fr, 23.04. 1:00 0.0 l/m2 in 1 Std. -
Fr, 23.04. 0:50 keine Meldung -
Fr, 23.04. 0:30 0.0 l/m2 in 1 Std. -
Fr, 23.04. 0:00 0.0 l/m2 in 1 Std. -
Do, 22.04. 23:30 0.0 l/m2 in 1 Std. -
Do, 22.04. 23:00 0.0 l/m2 in 1 Std. -
Do, 22.04. 22:30 0.0 l/m2 in 1 Std. -
Ortszeit Stärke Spitze Richtung
km/h Bft. km/h Grad Sektor
Do, 22.04. 20:00 39 6 54 310° NW
Do, 22.04. 14:00 31 5 56 310° NW
Do, 22.04. 8:00 33 5 59 320° NW
Do, 22.04. 2:00 40 6 58 320° NW
Mi, 21.04. 20:00 41 6 57 330° NW
Mi, 21.04. 14:00 29 5 43 330° NW
Mi, 21.04. 8:00 18 3 29 340° N
Mi, 21.04. 2:00 6 1 11 310° NW
Ortszeit Stärke Spitze Richtung
km/h Bft. km/h Grad Sektor
Fr, 23.04. 1:40 33 5 - 310° NW
Fr, 23.04. 1:30 28 4 41 310° NW
Fr, 23.04. 1:20 28 4 - 310° NW
Fr, 23.04. 1:10 30 5 - 310° NW
Fr, 23.04. 1:00 32 5 43 310° NW
Fr, 23.04. 0:50 32 5 - 310° NW
Fr, 23.04. 0:30 30 5 43 310° NW
Fr, 23.04. 0:00 36 5 47 310° NW
Do, 22.04. 23:30 35 5 43 310° NW
Do, 22.04. 23:00 33 5 44 310° NW
Do, 22.04. 22:30 36 5 43 310° NW
Ortszeit Untergrenze Bedeckung Gattung
total tief tief mittel hoch
Do, 22.04. 20:00 510 m 0/8 0/8 - - -
Do, 22.04. 14:00 - 0/8 0/8 - - -
Do, 22.04. 8:00 720 m 6/8 4/8 - - -
Do, 22.04. 2:00 960 m 7/8 7/8 - - -
Mi, 21.04. 20:00 1080 m 5/8 5/8 - - -
Mi, 21.04. 14:00 690 m 3/8 3/8 - - -
Mi, 21.04. 8:00 300 m 8/8 8/8 - - -
Mi, 21.04. 2:00 9000 m 0/8 0/8 - - -
Ortszeit Bedeckungsgrad in Achtel und Wolkenuntergrenze
Fr, 23.04. 1:40 1(510m)
Fr, 23.04. 1:30 keine Wolken
Fr, 23.04. 1:20 keine Wolken
Fr, 23.04. 1:10 keine Wolken
Fr, 23.04. 1:00 3(540m)
Fr, 23.04. 0:50 3(540m)
Fr, 23.04. 0:30 2(510m)
Fr, 23.04. 0:00 7(480m)
Do, 22.04. 23:30 6(420m)
Do, 22.04. 23:00 5(450m)
Do, 22.04. 22:30 5(450m)
Ortszeit Luftdruck NN (hPa) Tendenz (hPa in 3 Std.)
Do, 22.04. 20:00 1025 + 0,6
Do, 22.04. 14:00 1024 + 0,9
Do, 22.04. 8:00 1022 + 1,1
Do, 22.04. 2:00 1020 + 0,3
Mi, 21.04. 20:00 1020 + 0,5
Mi, 21.04. 14:00 1019 + 0,6
Mi, 21.04. 8:00 1017 + 0,9
Mi, 21.04. 2:00 1017 - 0,5
Ortszeit Luftdruck NN (hPa) Tendenz (hPa in 3 Std.)
Fr, 23.04. 1:40 1025 keine Meldung
Fr, 23.04. 1:30 1026 - 0,1
Fr, 23.04. 1:20 1026 keine Meldung
Fr, 23.04. 1:10 1025 keine Meldung
Fr, 23.04. 1:00 1025 - 0,3
Fr, 23.04. 0:50 1025 keine Meldung
Fr, 23.04. 0:30 1025 0,0
Fr, 23.04. 0:00 1025 + 0,1
Do, 22.04. 23:30 1025 + 0,1
Do, 22.04. 23:00 1026 + 0,5
Do, 22.04. 22:30 1026 + 0,7
Ortszeit Schneehöhe (cm)
Do, 22.04. 20:00 0
Do, 22.04. 14:00 0
Do, 22.04. 8:00 0
Do, 22.04. 2:00 0
Mi, 21.04. 20:00 0
Mi, 21.04. 14:00 0
Mi, 21.04. 8:00 0
Mi, 21.04. 2:00 0
Ortszeit Schneehöhe (cm)
Fr, 23.04. 1:40 0
Fr, 23.04. 1:30 0
Fr, 23.04. 1:20 0
Fr, 23.04. 1:10 0
Fr, 23.04. 1:00 0
Fr, 23.04. 0:50 0
Fr, 23.04. 0:30 0
Fr, 23.04. 0:00 0
Do, 22.04. 23:30 0
Do, 22.04. 23:00 0
Do, 22.04. 22:30 0
Link zu dieser Seite / Seite empfehlen

Das Wetter in ...